createdAt,value
2018-06-02T00:02:14.034Z,7.20
2018-06-02T00:04:41.539Z,7.27
2018-06-02T00:07:09.812Z,6.83
2018-06-02T00:09:38.104Z,7.53
2018-06-02T00:12:05.624Z,6.93
2018-06-02T00:14:33.172Z,7.17
2018-06-02T00:17:02.202Z,7.67
2018-06-02T00:19:31.032Z,7.40
2018-06-02T00:21:58.557Z,7.37
2018-06-02T00:24:26.077Z,7.07
2018-06-02T00:26:53.571Z,7.00
2018-06-02T00:29:22.063Z,6.93
2018-06-02T00:31:49.588Z,7.07
2018-06-02T00:34:17.852Z,8.27
2018-06-02T00:36:45.379Z,7.67
2018-06-02T00:39:12.899Z,8.27
2018-06-02T00:41:40.430Z,7.50
2018-06-02T00:44:08.713Z,6.93
2018-06-02T00:46:36.988Z,8.97
2018-06-02T00:49:05.279Z,7.70
2018-06-02T00:51:32.818Z,6.60
2018-06-02T00:54:01.164Z,7.57
2018-06-02T00:56:28.687Z,6.93
2018-06-02T00:58:56.186Z,5.93
2018-06-02T01:01:23.708Z,5.20
2018-06-02T01:03:51.203Z,6.60
2018-06-02T01:06:20.667Z,6.20
2018-06-02T01:08:49.133Z,5.87
2018-06-02T01:11:16.636Z,6.23
2018-06-02T01:13:44.135Z,6.13
2018-06-02T01:16:11.668Z,5.23
2018-06-02T01:18:39.931Z,6.00
2018-06-02T01:21:07.458Z,5.77
2018-06-02T01:23:34.954Z,6.43
2018-06-02T01:26:02.511Z,6.40
2018-06-02T01:28:31.529Z,5.70
2018-06-02T01:30:59.808Z,5.87
2018-06-02T01:33:27.328Z,5.57
2018-06-02T01:35:54.832Z,5.03
2018-06-02T01:38:22.379Z,5.93
2018-06-02T01:40:49.876Z,6.50
2018-06-02T01:43:17.394Z,6.43
2018-06-02T01:45:44.901Z,6.50
2018-06-02T01:48:14.385Z,5.97
2018-06-02T01:50:41.895Z,6.30
2018-06-02T01:53:10.171Z,6.90
2018-06-02T01:55:38.487Z,6.07
2018-06-02T01:58:06.011Z,5.90
2018-06-02T02:00:34.279Z,6.83
2018-06-02T02:03:02.547Z,7.20
2018-06-02T02:05:30.831Z,6.43
2018-06-02T02:07:59.099Z,6.93
2018-06-02T02:10:27.397Z,6.90
2018-06-02T02:12:55.842Z,6.53
2018-06-02T02:15:23.377Z,6.23
2018-06-02T02:17:50.879Z,7.23
2018-06-02T02:20:18.424Z,6.50
2018-06-02T02:22:46.703Z,6.30
2018-06-02T02:25:14.996Z,6.97
2018-06-02T02:27:42.504Z,7.40
2018-06-02T02:30:10.000Z,6.77
2018-06-02T02:32:40.247Z,7.30
2018-06-02T02:35:07.765Z,7.80
2018-06-02T02:37:36.059Z,7.37
2018-06-02T02:40:04.343Z,6.80
2018-06-02T02:42:31.862Z,7.70
2018-06-02T02:45:00.878Z,7.17
2018-06-02T02:47:29.191Z,7.87
2018-06-02T02:49:56.678Z,5.90
2018-06-02T02:52:24.223Z,7.27
2018-06-02T02:54:51.725Z,7.90
2018-06-02T02:57:20.940Z,7.40
2018-06-02T02:59:48.479Z,8.07
2018-06-02T03:02:16.742Z,7.00
2018-06-02T03:04:45.078Z,7.30
2018-06-02T03:07:12.579Z,7.27
2018-06-02T03:09:40.862Z,6.87
2018-06-02T03:12:09.127Z,7.90
2018-06-02T03:14:39.401Z,7.43
2018-06-02T03:17:06.892Z,6.30
2018-06-02T03:19:34.405Z,6.73
2018-06-02T03:22:01.947Z,6.30
2018-06-02T03:24:29.451Z,7.07
2018-06-02T03:26:56.975Z,6.00
2018-06-02T03:29:24.468Z,6.20
2018-06-02T03:31:51.980Z,7.20
2018-06-02T03:34:19.488Z,6.60
2018-06-02T03:36:48.963Z,7.40
2018-06-02T03:39:16.458Z,6.80
2018-06-02T03:41:43.969Z,6.67
2018-06-02T03:44:13.495Z,7.23
2018-06-02T03:46:40.995Z,6.97
2018-06-02T03:49:09.334Z,6.07
2018-06-02T03:51:36.858Z,7.60
2018-06-02T03:54:04.386Z,6.93
2018-06-02T03:56:32.654Z,6.17
2018-06-02T03:59:00.939Z,6.50
2018-06-02T04:01:29.227Z,6.73
2018-06-02T04:03:56.740Z,7.50
2018-06-02T04:06:25.014Z,7.20
2018-06-02T04:08:53.285Z,6.83
2018-06-02T04:11:20.815Z,6.90
2018-06-02T04:13:48.326Z,7.20
2018-06-02T04:16:16.614Z,7.17
2018-06-02T04:18:44.115Z,6.67
2018-06-02T04:21:11.651Z,6.43
2018-06-02T04:23:39.155Z,6.37
2018-06-02T04:26:07.452Z,7.43
2018-06-02T04:28:35.720Z,6.70
2018-06-02T04:31:05.195Z,6.70
2018-06-02T04:33:32.725Z,5.87
2018-06-02T04:36:00.223Z,6.60
2018-06-02T04:38:30.479Z,7.10
2018-06-02T04:40:57.993Z,6.50
2018-06-02T04:43:25.527Z,7.00
2018-06-02T04:45:54.019Z,7.70
2018-06-02T04:48:21.540Z,6.70
2018-06-02T04:50:49.035Z,7.67
2018-06-02T04:53:16.568Z,6.50
2018-06-02T04:55:44.078Z,6.43
2018-06-02T04:58:12.355Z,6.80
2018-06-02T05:00:42.619Z,6.73
2018-06-02T05:03:10.120Z,6.63
2018-06-02T05:05:38.462Z,6.03
2018-06-02T05:08:05.961Z,6.30
2018-06-02T05:10:34.286Z,6.50
2018-06-02T05:13:01.787Z,5.67
2018-06-02T05:15:30.095Z,6.13
2018-06-02T05:17:57.590Z,7.43
2018-06-02T05:20:25.090Z,5.67
2018-06-02T05:22:53.377Z,7.20
2018-06-02T05:25:20.874Z,6.20
2018-06-02T05:27:48.395Z,6.20
2018-06-02T05:30:15.899Z,7.00
2018-06-02T05:32:43.414Z,5.90
2018-06-02T05:35:10.950Z,5.93
2018-06-02T05:37:39.248Z,6.13
2018-06-02T05:40:06.788Z,5.57
2018-06-02T05:42:35.053Z,5.70
2018-06-02T05:45:03.359Z,6.10
2018-06-02T05:47:30.860Z,5.10
2018-06-02T05:49:58.410Z,4.30
2018-06-02T05:52:26.707Z,5.00
2018-06-02T05:54:54.260Z,4.53
2018-06-02T05:57:22.528Z,5.73
2018-06-02T05:59:50.061Z,5.40
2018-06-02T06:02:17.576Z,4.87
2018-06-02T06:04:45.855Z,4.87
2018-06-02T06:07:14.147Z,5.50
2018-06-02T06:09:41.657Z,5.33
2018-06-02T06:12:09.185Z,5.83
2018-06-02T06:14:36.743Z,5.40
2018-06-02T06:17:06.228Z,5.73
2018-06-02T06:19:33.772Z,6.83
2018-06-02T06:22:01.318Z,6.13
2018-06-02T06:24:29.613Z,6.90
2018-06-02T06:26:57.203Z,5.97
2018-06-02T06:29:24.696Z,5.90
2018-06-02T06:31:52.203Z,5.83
2018-06-02T06:34:19.749Z,6.00
2018-06-02T06:36:47.259Z,5.40
2018-06-02T06:39:14.783Z,5.13
2018-06-02T06:41:42.284Z,4.60
2018-06-02T06:44:09.795Z,5.03
2018-06-02T06:46:37.363Z,4.57
2018-06-02T06:49:04.877Z,4.27
2018-06-02T06:51:32.392Z,4.77
2018-06-02T06:53:59.932Z,4.40
2018-06-02T06:56:27.456Z,3.93
2018-06-02T06:58:54.961Z,4.00
2018-06-02T07:01:22.470Z,3.93
2018-06-02T07:03:49.980Z,4.50
2018-06-02T07:06:17.503Z,4.47
2018-06-02T07:08:44.991Z,4.30
2018-06-02T07:11:12.502Z,3.90
2018-06-02T07:13:40.027Z,4.10
2018-06-02T07:16:07.559Z,4.03
2018-06-02T07:18:35.083Z,3.73
2018-06-02T07:21:02.578Z,4.80
2018-06-02T07:23:30.131Z,4.50
2018-06-02T07:25:57.647Z,4.23
2018-06-02T07:28:26.123Z,4.43
2018-06-02T07:30:53.643Z,4.10
2018-06-02T07:33:21.910Z,3.60
2018-06-02T07:35:49.430Z,3.67
2018-06-02T07:38:16.927Z,3.40
2018-06-02T07:40:46.936Z,3.50
2018-06-02T07:43:15.402Z,3.43
2018-06-02T07:45:42.933Z,3.47
2018-06-02T07:48:11.175Z,3.77
2018-06-02T07:50:39.462Z,3.40
2018-06-02T07:53:07.737Z,3.47
2018-06-02T07:55:35.261Z,3.20
2018-06-02T07:58:03.540Z,3.43
2018-06-02T08:00:31.810Z,3.70
2018-06-02T08:02:59.352Z,3.37
2018-06-02T08:05:27.660Z,3.20
2018-06-02T08:07:55.951Z,4.30
2018-06-02T08:10:24.455Z,3.80
2018-06-02T08:12:51.974Z,3.37
2018-06-02T08:15:20.239Z,3.50
2018-06-02T08:17:48.534Z,3.83
2018-06-02T08:20:16.814Z,3.40
2018-06-02T08:22:45.075Z,3.87
2018-06-02T08:25:13.360Z,3.67
2018-06-02T08:27:41.641Z,3.20
2018-06-02T08:30:09.170Z,3.03
2018-06-02T08:32:36.704Z,3.67
2018-06-02T08:35:04.194Z,3.23
2018-06-02T08:37:32.484Z,3.00
2018-06-02T08:40:00.747Z,3.53
2018-06-02T08:42:29.048Z,2.80
2018-06-02T08:44:56.555Z,2.83
2018-06-02T08:47:24.079Z,3.17
2018-06-02T08:49:52.547Z,3.47
2018-06-02T08:52:22.063Z,2.90
2018-06-02T08:54:49.562Z,3.30
2018-06-02T08:57:18.796Z,3.00
2018-06-02T08:59:48.322Z,3.13
2018-06-02T09:02:15.915Z,3.13
2018-06-02T09:04:43.439Z,2.93
2018-06-02T09:07:10.935Z,3.50
2018-06-02T09:09:39.238Z,3.20
2018-06-02T09:12:06.742Z,3.67
2018-06-02T09:14:34.258Z,3.17
2018-06-02T09:17:01.758Z,2.93
2018-06-02T09:19:29.255Z,3.20
2018-06-02T09:21:57.536Z,3.27
2018-06-02T09:24:26.767Z,2.97
2018-06-02T09:26:54.283Z,3.17
2018-06-02T09:29:22.543Z,2.90
2018-06-02T09:31:52.007Z,2.73
2018-06-02T09:34:19.731Z,3.03
2018-06-02T09:36:47.224Z,2.63
2018-06-02T09:39:14.746Z,3.00
2018-06-02T09:41:44.005Z,3.20
2018-06-02T09:44:11.523Z,3.03
2018-06-02T09:46:39.020Z,3.10
2018-06-02T09:49:06.543Z,2.93
2018-06-02T09:51:34.075Z,3.10
2018-06-02T09:54:02.337Z,3.47
2018-06-02T09:56:30.631Z,2.90
2018-06-02T09:58:58.130Z,2.97
2018-06-02T10:01:25.666Z,2.80
2018-06-02T10:03:54.123Z,3.37
2018-06-02T10:06:22.409Z,2.90
2018-06-02T10:08:49.920Z,3.53
2018-06-02T10:11:20.211Z,3.67
2018-06-02T10:13:47.735Z,3.87
2018-06-02T10:16:16.028Z,4.10
2018-06-02T10:18:43.540Z,3.60
2018-06-02T10:21:11.810Z,3.83
2018-06-02T10:23:40.835Z,4.60
2018-06-02T10:26:09.096Z,2.97
2018-06-02T10:28:37.394Z,4.57
2018-06-02T10:31:06.909Z,3.80
2018-06-02T10:33:34.408Z,3.53
2018-06-02T10:36:01.935Z,3.40
2018-06-02T10:38:29.467Z,3.83
2018-06-02T10:40:56.964Z,3.80
2018-06-02T10:43:25.444Z,3.97
2018-06-02T10:45:52.968Z,3.27
2018-06-02T10:48:20.471Z,3.83
2018-06-02T10:50:48.017Z,3.17
2018-06-02T10:53:15.549Z,3.00
2018-06-02T10:55:43.183Z,4.17
2018-06-02T10:58:11.793Z,4.00
2018-06-02T11:00:39.498Z,3.50
2018-06-02T11:03:07.001Z,3.60
2018-06-02T11:05:34.534Z,3.50
2018-06-02T11:08:02.838Z,3.63
2018-06-02T11:10:30.330Z,3.60
2018-06-02T11:12:57.861Z,4.20
2018-06-02T11:15:25.359Z,3.60
2018-06-02T11:17:53.643Z,3.13
2018-06-02T11:20:21.147Z,3.23
2018-06-02T11:22:48.676Z,4.00
2018-06-02T11:25:17.892Z,3.73
2018-06-02T11:27:45.396Z,3.43
2018-06-02T11:30:12.916Z,3.80
2018-06-02T11:32:40.445Z,3.63
2018-06-02T11:35:08.734Z,3.50
2018-06-02T11:37:36.243Z,3.57
2018-06-02T11:40:03.763Z,3.53
2018-06-02T11:42:31.266Z,3.00
2018-06-02T11:44:59.554Z,3.70
2018-06-02T11:47:27.848Z,3.40
2018-06-02T11:49:55.783Z,3.23
2018-06-02T11:52:23.602Z,3.40
2018-06-02T11:54:51.471Z,3.20
2018-06-02T11:57:19.333Z,3.30
2018-06-02T11:59:47.004Z,3.37
2018-06-02T12:02:14.795Z,3.40
2018-06-02T12:04:43.439Z,3.20
2018-06-02T12:07:11.205Z,2.97
2018-06-02T12:09:39.172Z,3.10
2018-06-02T12:12:07.038Z,3.30
2018-06-02T12:14:35.622Z,3.13
2018-06-02T12:17:06.048Z,3.17
2018-06-02T12:19:35.040Z,3.50
2018-06-02T12:22:02.813Z,3.40
2018-06-02T12:24:30.409Z,3.00
2018-06-02T12:26:58.786Z,3.03
2018-06-02T12:29:27.148Z,2.73
2018-06-02T12:31:55.799Z,2.93
2018-06-02T12:34:23.380Z,3.10
2018-06-02T12:36:50.917Z,3.20
2018-06-02T12:39:18.443Z,3.30
2018-06-02T12:41:46.771Z,2.77
2018-06-02T12:44:14.289Z,3.00
2018-06-02T12:46:41.799Z,3.30
2018-06-02T12:49:09.638Z,2.70
2018-06-02T12:51:37.314Z,3.10
2018-06-02T12:54:06.771Z,3.10
2018-06-02T12:56:34.656Z,2.60
2018-06-02T12:59:02.370Z,2.70
2018-06-02T13:01:31.001Z,2.70
2018-06-02T13:03:59.890Z,2.50
2018-06-02T13:06:27.689Z,2.77
2018-06-02T13:08:56.056Z,2.83
2018-06-02T13:11:23.632Z,2.97
2018-06-02T13:13:52.096Z,2.40
2018-06-02T13:16:19.638Z,2.67
2018-06-02T13:18:47.389Z,3.20
2018-06-02T13:21:15.239Z,2.67
2018-06-02T13:23:44.681Z,3.00
2018-06-02T13:26:12.255Z,3.30
2018-06-02T13:28:39.853Z,3.17
2018-06-02T13:31:07.744Z,3.03
2018-06-02T13:33:35.309Z,2.90
2018-06-02T13:36:02.874Z,2.60
2018-06-02T13:38:31.313Z,2.57
2018-06-02T13:40:59.601Z,2.73
2018-06-02T13:43:27.103Z,2.90
2018-06-02T13:45:54.621Z,2.77
2018-06-02T13:48:22.126Z,2.60
2018-06-02T13:50:49.640Z,3.40
2018-06-02T13:53:17.140Z,2.70
2018-06-02T13:55:45.437Z,2.93
2018-06-02T13:58:13.719Z,3.07
2018-06-02T14:00:41.975Z,3.50
2018-06-02T14:03:09.522Z,3.60
2018-06-02T14:05:37.798Z,3.00
2018-06-02T14:08:05.320Z,3.50
2018-06-02T14:10:33.786Z,3.30
2018-06-02T14:13:01.313Z,3.07
2018-06-02T14:15:29.580Z,2.87
2018-06-02T14:17:57.846Z,2.50
2018-06-02T14:20:26.134Z,2.40
2018-06-02T14:22:53.631Z,3.30
2018-06-02T14:25:21.162Z,2.63
2018-06-02T14:27:48.663Z,2.83
2018-06-02T14:30:16.191Z,2.20
2018-06-02T14:32:43.718Z,2.73
2018-06-02T14:35:12.025Z,2.70
2018-06-02T14:37:39.527Z,2.87
2018-06-02T14:40:07.061Z,2.57
2018-06-02T14:42:34.553Z,3.00
2018-06-02T14:45:03.551Z,2.70
2018-06-02T14:47:31.062Z,2.37
2018-06-02T14:49:58.570Z,2.23
2018-06-02T14:52:26.090Z,2.63
2018-06-02T14:54:53.634Z,2.73
2018-06-02T14:57:21.878Z,2.60
2018-06-02T14:59:50.150Z,2.77
2018-06-02T15:02:18.455Z,2.80
2018-06-02T15:04:45.976Z,3.07
2018-06-02T15:07:14.260Z,2.70
2018-06-02T15:09:41.773Z,2.30
2018-06-02T15:12:11.231Z,2.90
2018-06-02T15:14:38.740Z,2.00
2018-06-02T15:17:07.006Z,2.37
2018-06-02T15:19:34.529Z,2.50
2018-06-02T15:22:02.027Z,2.30
2018-06-02T15:24:30.313Z,2.43
2018-06-02T15:26:59.319Z,2.60
2018-06-02T15:29:28.828Z,2.60
2018-06-02T15:31:57.099Z,2.63
2018-06-02T15:34:27.348Z,2.20
2018-06-02T15:36:54.856Z,2.67
2018-06-02T15:39:22.359Z,2.57
2018-06-02T15:41:49.896Z,3.10
2018-06-02T15:44:18.152Z,2.47
2018-06-02T15:46:46.438Z,2.97
2018-06-02T15:49:14.711Z,3.47
2018-06-02T15:51:43.008Z,3.00
2018-06-02T15:54:10.510Z,2.67
2018-06-02T15:56:38.036Z,2.00
2018-06-02T15:59:05.535Z,2.67
2018-06-02T16:01:33.084Z,3.03
2018-06-02T16:04:00.589Z,2.43
2018-06-02T16:06:28.856Z,2.40
2018-06-02T16:08:57.143Z,2.20
2018-06-02T16:11:25.415Z,2.43
2018-06-02T16:13:53.696Z,2.27
2018-06-02T16:16:21.191Z,2.20
2018-06-02T16:18:48.699Z,2.33
2018-06-02T16:21:16.955Z,2.60
2018-06-02T16:23:44.476Z,2.50
2018-06-02T16:26:11.974Z,2.20
2018-06-02T16:28:41.447Z,2.60
2018-06-02T16:31:08.948Z,2.50
2018-06-02T16:33:37.215Z,2.63
2018-06-02T16:36:05.513Z,2.13
2018-06-02T16:38:33.011Z,6.07
2018-06-02T16:41:00.531Z,5.87
2018-06-02T16:43:28.025Z,4.40
2018-06-02T16:45:56.300Z,4.77
2018-06-02T16:48:23.811Z,6.70
2018-06-02T16:50:52.248Z,6.17
2018-06-02T16:53:21.259Z,5.00
2018-06-02T16:55:49.519Z,5.20
2018-06-02T16:58:17.044Z,5.80
2018-06-02T17:00:45.482Z,5.33
2018-06-02T17:03:13.776Z,5.60
2018-06-02T17:05:41.279Z,12.43
2018-06-02T17:08:08.827Z,41.57
2018-06-02T17:10:36.363Z,27.10
2018-06-02T17:13:03.922Z,29.87
2018-06-02T17:15:31.443Z,24.07
2018-06-02T17:17:59.775Z,29.67
2018-06-02T17:20:28.287Z,25.67
2018-06-02T17:22:55.816Z,19.30
2018-06-02T17:25:24.269Z,18.63
2018-06-02T17:27:51.804Z,15.87
2018-06-02T17:30:20.082Z,18.57
2018-06-02T17:32:50.322Z,15.90
2018-06-02T17:35:17.831Z,17.70
2018-06-02T17:37:46.128Z,16.70
2018-06-02T17:40:14.421Z,16.67
2018-06-02T17:42:41.929Z,16.13
2018-06-02T17:45:09.458Z,16.33
2018-06-02T17:47:36.977Z,16.60
2018-06-02T17:50:05.286Z,16.70
2018-06-02T17:52:32.823Z,14.23
2018-06-02T17:55:01.338Z,14.67
2018-06-02T17:57:28.863Z,15.33
2018-06-02T17:59:56.381Z,13.37
2018-06-02T18:02:24.689Z,14.20
2018-06-02T18:04:52.212Z,14.43
2018-06-02T18:07:19.812Z,12.30
2018-06-02T18:09:47.331Z,13.00
2018-06-02T18:12:14.885Z,12.20
2018-06-02T18:14:42.418Z,13.30
2018-06-02T18:17:09.943Z,12.43
2018-06-02T18:19:37.486Z,10.97
2018-06-02T18:22:05.758Z,10.73
2018-06-02T18:24:34.051Z,10.90
2018-06-02T18:27:03.564Z,13.30
2018-06-02T18:29:33.079Z,11.97
2018-06-02T18:32:00.599Z,10.00
2018-06-02T18:34:28.875Z,12.40
2018-06-02T18:36:57.175Z,10.00
2018-06-02T18:39:24.703Z,11.40
2018-06-02T18:41:53.963Z,10.53
2018-06-02T18:44:21.512Z,10.70
2018-06-02T18:46:49.086Z,10.20
2018-06-02T18:49:16.603Z,10.47
2018-06-02T18:51:44.116Z,9.13
2018-06-02T18:54:13.155Z,10.00
2018-06-02T18:56:42.671Z,9.90
2018-06-02T18:59:10.163Z,9.20
2018-06-02T19:01:37.683Z,9.00
2018-06-02T19:04:05.216Z,9.90
2018-06-02T19:06:33.699Z,8.60
2018-06-02T19:09:01.227Z,8.07
2018-06-02T19:11:28.722Z,8.90
2018-06-02T19:13:56.262Z,9.17
2018-06-02T19:16:25.508Z,9.03
2018-06-02T19:18:53.011Z,9.10
2018-06-02T19:21:21.303Z,10.10
2018-06-02T19:23:48.810Z,8.90
2018-06-02T19:26:16.340Z,7.20
2018-06-02T19:28:43.844Z,8.47
2018-06-02T19:31:12.160Z,8.60
2018-06-02T19:33:39.672Z,8.87
2018-06-02T19:36:07.207Z,9.03
2018-06-02T19:38:34.717Z,8.13
2018-06-02T19:41:02.266Z,8.83
2018-06-02T19:43:31.278Z,7.87
2018-06-02T19:45:58.779Z,8.33
2018-06-02T19:48:26.330Z,8.03
2018-06-02T19:50:53.851Z,7.60
2018-06-02T19:53:22.432Z,7.40
2018-06-02T19:55:49.934Z,8.03
2018-06-02T19:58:17.863Z,8.20
2018-06-02T20:00:46.453Z,8.00
2018-06-02T20:03:14.996Z,8.57
2018-06-02T20:05:43.368Z,8.10
2018-06-02T20:08:12.488Z,7.67
2018-06-02T20:10:40.364Z,7.97
2018-06-02T20:13:07.940Z,7.13
2018-06-02T20:15:37.443Z,7.90
2018-06-02T20:18:05.935Z,7.90
2018-06-02T20:20:33.439Z,7.83
2018-06-02T20:23:01.732Z,7.57
2018-06-02T20:25:29.234Z,8.10
2018-06-02T20:27:56.751Z,7.67
2018-06-02T20:30:24.266Z,7.10
2018-06-02T20:32:51.793Z,7.33
2018-06-02T20:35:19.301Z,6.80
2018-06-02T20:37:46.831Z,7.07
2018-06-02T20:40:14.341Z,7.33
2018-06-02T20:42:41.845Z,7.07
2018-06-02T20:45:09.370Z,7.43
2018-06-02T20:47:37.829Z,7.33
2018-06-02T20:50:05.358Z,7.33
2018-06-02T20:52:33.627Z,6.87
2018-06-02T20:55:01.911Z,6.47
2018-06-02T20:57:30.178Z,6.13
2018-06-02T20:59:58.459Z,5.97
2018-06-02T21:02:26.750Z,6.83
2018-06-02T21:04:55.207Z,7.10
2018-06-02T21:07:23.499Z,6.07
2018-06-02T21:09:51.002Z,6.90
2018-06-02T21:12:20.468Z,6.57
2018-06-02T21:14:47.968Z,6.80
2018-06-02T21:17:15.464Z,6.27
2018-06-02T21:19:43.755Z,6.07
2018-06-02T21:22:11.297Z,7.60
2018-06-02T21:24:39.596Z,6.70
2018-06-02T21:27:07.119Z,6.30
2018-06-02T21:29:35.415Z,7.10
2018-06-02T21:32:02.929Z,6.50
2018-06-02T21:34:31.935Z,6.37
2018-06-02T21:36:59.501Z,5.93
2018-06-02T21:39:27.777Z,6.20
2018-06-02T21:41:56.067Z,5.57
2018-06-02T21:44:24.354Z,6.23
2018-06-02T21:46:51.889Z,6.53
2018-06-02T21:49:20.157Z,6.37
2018-06-02T21:51:48.443Z,5.30
2018-06-02T21:54:16.808Z,6.20
2018-06-02T21:56:44.354Z,5.57
2018-06-02T21:59:12.537Z,5.80
2018-06-02T22:01:40.108Z,5.93
2018-06-02T22:04:08.827Z,6.13
2018-06-02T22:06:36.384Z,5.20
2018-06-02T22:09:03.898Z,6.37
2018-06-02T22:11:32.364Z,5.57
2018-06-02T22:14:00.699Z,7.03
2018-06-02T22:16:28.232Z,6.03
2018-06-02T22:18:57.426Z,5.20
2018-06-02T22:21:25.102Z,5.67
2018-06-02T22:23:52.763Z,5.37
2018-06-02T22:26:20.288Z,5.90
2018-06-02T22:28:48.597Z,6.00
2018-06-02T22:31:17.290Z,5.93
2018-06-02T22:33:46.078Z,5.77
2018-06-02T22:36:13.606Z,6.17
2018-06-02T22:38:42.082Z,6.33
2018-06-02T22:41:10.357Z,5.50
2018-06-02T22:43:40.571Z,5.80
2018-06-02T22:46:09.819Z,5.07
2018-06-02T22:48:37.316Z,5.20
2018-06-02T22:51:05.609Z,6.23
2018-06-02T22:53:33.869Z,5.97
2018-06-02T22:56:01.392Z,5.83
2018-06-02T22:58:29.883Z,5.10
2018-06-02T23:00:57.443Z,5.47
2018-06-02T23:03:25.880Z,5.20
2018-06-02T23:05:53.451Z,5.40
2018-06-02T23:08:20.973Z,5.23
2018-06-02T23:10:49.244Z,5.80
2018-06-02T23:13:17.523Z,5.90
2018-06-02T23:15:45.813Z,5.53
2018-06-02T23:18:13.344Z,5.87
2018-06-02T23:20:40.846Z,5.17
2018-06-02T23:23:08.370Z,5.73
2018-06-02T23:25:36.637Z,5.87
2018-06-02T23:28:04.928Z,6.07
2018-06-02T23:30:33.195Z,8.03
2018-06-02T23:33:01.635Z,7.67
2018-06-02T23:35:29.131Z,7.90
2018-06-02T23:37:57.426Z,9.07
2018-06-02T23:40:24.922Z,8.30
2018-06-02T23:42:52.471Z,8.20
2018-06-02T23:45:19.947Z,7.70
2018-06-02T23:47:47.442Z,7.13
2018-06-02T23:50:15.719Z,7.97
2018-06-02T23:52:43.220Z,7.83
2018-06-02T23:55:12.683Z,8.80
2018-06-02T23:57:40.192Z,7.60
